Time;durP1;ratioP1;P1;durP2;ratioP2;P2;SDS_P1;SDS_P2;PMS_P1;PMS_P2;Temp;Humidity;BMP_temperature;BMP_pressure;BME280_temperature;BME280_humidity;BME280_pressure;Samples;Min_cycle;Max_cycle;Signal;HPM_P1;HPM_P2
2023/06/17 00:00:52;;;;;;;5.30;3.45;;;;;;;;;;5015643;28;20137;-73
2023/06/17 00:03:18;;;;;;;8.88;3.97;;;;;;;;;;5015212;28;20034;-72
2023/06/17 00:05:43;;;;;;;6.60;4.25;;;;;;;;;;5015254;28;20068;-73
2023/06/17 00:08:08;;;;;;;6.95;4.00;;;;;;;;;;5003855;28;20080;-72
2023/06/17 00:10:34;;;;;;;5.75;3.67;;;;;;;;;;5012513;28;20052;-73
2023/06/17 00:13:00;;;;;;;5.90;3.85;;;;;;;;;;5014803;28;20077;-72
2023/06/17 00:15:28;;;;;;;6.43;3.80;;;;;;;;;;5014992;28;20026;-73
2023/06/17 00:17:56;;;;;;;10.25;3.70;;;;;;;;;;5014918;28;20038;-73
2023/06/17 00:20:23;;;;;;;9.23;3.88;;;;;;;;;;5010859;28;20044;-72
2023/06/17 00:22:48;;;;;;;6.18;3.45;;;;;;;;;;5013276;28;20029;-72
2023/06/17 00:25:13;;;;;;;6.00;3.90;;;;;;;;;;5014798;28;20116;-73
2023/06/17 00:27:39;;;;;;;9.45;4.00;;;;;;;;;;5013752;28;20037;-73
2023/06/17 00:30:06;;;;;;;5.40;3.65;;;;;;;;;;5007100;28;20031;-73
2023/06/17 00:32:31;;;;;;;7.97;3.50;;;;;;;;;;5005143;28;20044;-72
2023/06/17 00:34:57;;;;;;;7.35;3.83;;;;;;;;;;5003627;28;20034;-73
2023/06/17 00:37:22;;;;;;;6.35;3.88;;;;;;;;;;5014603;28;20044;-73
2023/06/17 00:39:48;;;;;;;5.65;4.00;;;;;;;;;;5014469;28;20375;-72
2023/06/17 00:42:13;;;;;;;9.55;4.40;;;;;;;;;;5013502;28;20038;-73
2023/06/17 00:44:39;;;;;;;6.32;3.97;;;;;;;;;;5014775;28;20045;-73
2023/06/17 00:47:05;;;;;;;9.13;3.85;;;;;;;;;;5012804;28;20095;-73
2023/06/17 00:49:36;;;;;;;5.18;3.40;;;;;;;;;;5013351;28;20433;-73
2023/06/17 00:52:04;;;;;;;5.22;3.92;;;;;;;;;;5008399;28;20080;-73
2023/06/17 00:54:30;;;;;;;10.15;3.72;;;;;;;;;;5013267;28;20450;-72
2023/06/17 00:56:57;;;;;;;6.07;3.88;;;;;;;;;;5014384;28;20034;-72
2023/06/17 00:59:22;;;;;;;6.55;3.70;;;;;;;;;;5013253;28;20050;-73
2023/06/17 01:01:48;;;;;;;8.27;3.90;;;;;;;;;;5011877;28;20042;-72
2023/06/17 01:04:15;;;;;;;5.85;3.92;;;;;;;;;;5012505;28;20034;-72
2023/06/17 01:06:45;;;;;;;7.18;3.30;;;;;;;;;;5014153;28;20065;-72
2023/06/17 01:09:15;;;;;;;4.85;3.78;;;;;;;;;;5011843;28;20446;-73
2023/06/17 01:11:41;;;;;;;5.00;3.40;;;;;;;;;;5010994;28;20409;-73
2023/06/17 01:14:08;;;;;;;5.15;3.35;;;;;;;;;;5012644;28;20482;-73
2023/06/17 01:16:34;;;;;;;5.05;3.45;;;;;;;;;;5012974;28;20118;-73
2023/06/17 01:19:02;;;;;;;4.75;3.40;;;;;;;;;;5012115;28;20511;-72
2023/06/17 01:21:28;;;;;;;8.20;3.20;;;;;;;;;;5008402;28;20120;-73
2023/06/17 01:23:55;;;;;;;5.13;3.38;;;;;;;;;;5012391;28;20025;-72
2023/06/17 01:26:21;;;;;;;5.30;3.05;;;;;;;;;;5012617;28;20038;-72
2023/06/17 01:28:48;;;;;;;5.25;3.33;;;;;;;;;;5012532;28;20044;-72
2023/06/17 01:31:18;;;;;;;4.10;2.90;;;;;;;;;;5006311;28;20033;-72
2023/06/17 01:33:45;;;;;;;4.95;3.22;;;;;;;;;;5013332;28;20058;-72
2023/06/17 01:36:21;;;;;;;5.53;3.20;;;;;;;;;;5012868;28;20041;-72
2023/06/17 01:38:49;;;;;;;6.97;3.30;;;;;;;;;;5013444;28;20034;-72
2023/06/17 01:41:17;;;;;;;4.80;3.28;;;;;;;;;;5012520;28;20120;-72
2023/06/17 01:43:44;;;;;;;4.72;3.30;;;;;;;;;;5011370;28;20030;-72
2023/06/17 01:46:11;;;;;;;6.80;3.72;;;;;;;;;;5012698;28;20161;-72
2023/06/17 01:48:36;;;;;;;4.75;3.25;;;;;;;;;;5012032;28;20195;-72
2023/06/17 01:51:02;;;;;;;4.05;2.90;;;;;;;;;;5006093;28;20528;-72
2023/06/17 01:53:27;;;;;;;7.38;3.70;;;;;;;;;;5011832;28;20087;-72
2023/06/17 01:55:53;;;;;;;5.18;3.05;;;;;;;;;;5012152;28;20053;-72
2023/06/17 01:58:18;;;;;;;4.80;3.08;;;;;;;;;;5008903;28;20053;-72
2023/06/17 02:00:43;;;;;;;7.80;3.42;;;;;;;;;;5012741;28;20052;-72
2023/06/17 02:03:08;;;;;;;4.82;3.17;;;;;;;;;;5009608;28;20042;-72
2023/06/17 02:05:34;;;;;;;5.50;3.25;;;;;;;;;;5013545;28;20109;-72
2023/06/17 02:08:00;;;;;;;7.25;3.47;;;;;;;;;;5013136;28;20034;-72
2023/06/17 02:10:26;;;;;;;4.22;2.75;;;;;;;;;;5013126;28;20115;-72
2023/06/17 02:12:51;;;;;;;4.25;3.25;;;;;;;;;;5013518;28;20034;-72
2023/06/17 02:15:17;;;;;;;4.90;3.00;;;;;;;;;;5018650;28;20041;-72
2023/06/17 02:17:42;;;;;;;4.82;3.10;;;;;;;;;;5019582;28;20048;-72
2023/06/17 02:20:09;;;;;;;6.70;3.38;;;;;;;;;;5018005;28;20079;-72
2023/06/17 02:22:35;;;;;;;4.45;3.08;;;;;;;;;;5019320;28;20092;-72
2023/06/17 02:25:02;;;;;;;4.50;2.95;;;;;;;;;;5016334;28;20478;-72
2023/06/17 02:27:27;;;;;;;4.57;3.10;;;;;;;;;;5019893;28;20061;-72
2023/06/17 02:29:53;;;;;;;6.90;3.40;;;;;;;;;;5017560;28;20073;-72
2023/06/17 02:32:18;;;;;;;6.95;3.70;;;;;;;;;;5019612;28;20026;-72
2023/06/17 02:34:47;;;;;;;5.90;3.15;;;;;;;;;;5019623;28;20076;-72
2023/06/17 02:37:13;;;;;;;5.13;3.50;;;;;;;;;;5019510;28;20037;-72
2023/06/17 02:39:38;;;;;;;6.32;3.45;;;;;;;;;;5019485;28;20080;-72
2023/06/17 02:42:04;;;;;;;6.28;3.30;;;;;;;;;;5019481;28;20042;-72
2023/06/17 02:44:29;;;;;;;6.55;3.95;;;;;;;;;;5019632;28;20042;-72
2023/06/17 02:46:54;;;;;;;4.93;3.25;;;;;;;;;;5017577;28;20096;-72
2023/06/17 02:49:20;;;;;;;5.30;3.28;;;;;;;;;;5017819;28;20034;-72
2023/06/17 02:51:46;;;;;;;5.70;3.28;;;;;;;;;;5011082;28;20134;-72
2023/06/17 02:54:12;;;;;;;5.70;3.63;;;;;;;;;;5019752;28;20449;-72
2023/06/17 02:56:37;;;;;;;6.50;3.35;;;;;;;;;;5019102;28;20029;-72
2023/06/17 02:59:03;;;;;;;4.82;3.15;;;;;;;;;;5017906;28;20050;-72
2023/06/17 03:01:28;;;;;;;5.55;3.17;;;;;;;;;;5018800;28;20506;-72
2023/06/17 03:03:55;;;;;;;4.20;3.05;;;;;;;;;;5017705;28;20029;-72
2023/06/17 03:06:21;;;;;;;5.50;3.45;;;;;;;;;;5019334;28;20044;-72
2023/06/17 03:08:47;;;;;;;6.45;3.42;;;;;;;;;;5017705;28;20096;-72
2023/06/17 03:11:12;;;;;;;8.43;3.15;;;;;;;;;;5018992;28;20121;-72
2023/06/17 03:13:38;;;;;;;6.18;3.40;;;;;;;;;;5019285;28;20044;-72
2023/06/17 03:16:05;;;;;;;6.20;3.55;;;;;;;;;;5019363;28;20396;-72
2023/06/17 03:18:31;;;;;;;8.35;3.55;;;;;;;;;;5019249;28;20053;-72
2023/06/17 03:20:56;;;;;;;6.47;3.97;;;;;;;;;;5017552;28;20065;-72
2023/06/17 03:23:22;;;;;;;5.80;3.72;;;;;;;;;;5017088;28;20667;-72
2023/06/17 03:25:48;;;;;;;5.45;3.58;;;;;;;;;;5014947;28;20033;-72
2023/06/17 03:28:14;;;;;;;5.43;3.55;;;;;;;;;;5014849;28;20042;-72
2023/06/17 03:30:42;;;;;;;5.28;3.28;;;;;;;;;;5015935;28;20037;-72
2023/06/17 03:33:08;;;;;;;4.75;3.40;;;;;;;;;;5015788;28;20084;-72
2023/06/17 03:35:34;;;;;;;4.70;3.20;;;;;;;;;;5014974;28;20045;-72
2023/06/17 03:37:59;;;;;;;5.75;3.70;;;;;;;;;;5015601;28;20042;-72
2023/06/17 03:40:25;;;;;;;5.60;3.47;;;;;;;;;;5015770;28;20036;-72
2023/06/17 03:42:50;;;;;;;4.30;3.13;;;;;;;;;;5015771;28;20045;-72
2023/06/17 03:45:15;;;;;;;5.20;3.53;;;;;;;;;;5015597;28;20038;-72
2023/06/17 03:47:41;;;;;;;5.97;3.35;;;;;;;;;;5015533;28;20030;-72
2023/06/17 03:50:07;;;;;;;5.13;3.10;;;;;;;;;;5015520;28;20485;-72
2023/06/17 03:52:32;;;;;;;5.28;3.20;;;;;;;;;;5013786;28;20085;-72
2023/06/17 03:54:58;;;;;;;4.68;3.08;;;;;;;;;;5015389;28;20062;-72
2023/06/17 03:57:23;;;;;;;5.38;3.13;;;;;;;;;;5015353;28;20072;-72
2023/06/17 03:59:49;;;;;;;4.82;3.30;;;;;;;;;;5015539;28;20041;-72
2023/06/17 04:02:14;;;;;;;4.88;3.20;;;;;;;;;;5015381;28;20046;-72
2023/06/17 04:04:40;;;;;;;5.00;3.40;;;;;;;;;;5015505;28;20038;-72
2023/06/17 04:07:05;;;;;;;9.10;3.83;;;;;;;;;;5015130;28;20129;-72
2023/06/17 04:09:30;;;;;;;5.05;3.50;;;;;;;;;;5015158;28;20120;-72
2023/06/17 04:11:57;;;;;;;4.68;3.33;;;;;;;;;;5015069;28;20393;-72
2023/06/17 04:14:22;;;;;;;4.47;3.15;;;;;;;;;;5015439;28;20050;-72
2023/06/17 04:16:49;;;;;;;8.10;3.60;;;;;;;;;;5014906;28;20041;-72
2023/06/17 04:19:17;;;;;;;7.35;3.17;;;;;;;;;;5015185;28;20046;-72
2023/06/17 04:21:43;;;;;;;6.35;3.47;;;;;;;;;;5014049;28;20175;-72
2023/06/17 04:24:09;;;;;;;4.95;3.22;;;;;;;;;;5010695;28;20038;-72
2023/06/17 04:26:34;;;;;;;4.30;3.03;;;;;;;;;;5008645;28;20517;-72
2023/06/17 04:29:03;;;;;;;5.43;3.30;;;;;;;;;;5014947;28;20065;-72
2023/06/17 04:31:28;;;;;;;4.65;3.13;;;;;;;;;;5013212;28;20030;-72
2023/06/17 04:33:54;;;;;;;4.53;3.13;;;;;;;;;;5014647;28;20506;-72
2023/06/17 04:36:20;;;;;;;5.85;3.35;;;;;;;;;;5014691;28;20034;-72
2023/06/17 04:38:49;;;;;;;5.90;3.28;;;;;;;;;;5013002;28;20417;-72
2023/06/17 04:41:17;;;;;;;6.22;3.25;;;;;;;;;;5013117;28;20037;-72
2023/06/17 04:43:48;;;;;;;7.72;3.10;;;;;;;;;;5014719;28;20132;-72
2023/06/17 04:46:13;;;;;;;5.97;3.63;;;;;;;;;;5009850;28;20030;-72
2023/06/17 04:48:39;;;;;;;4.28;3.15;;;;;;;;;;5012853;28;20032;-72
2023/06/17 04:51:07;;;;;;;9.95;3.72;;;;;;;;;;5010509;28;20390;-72
2023/06/17 04:53:32;;;;;;;4.47;2.80;;;;;;;;;;5008889;28;20447;-72
2023/06/17 04:55:58;;;;;;;6.05;3.30;;;;;;;;;;5014307;28;20117;-72
2023/06/17 04:58:23;;;;;;;4.30;2.90;;;;;;;;;;5014016;28;20076;-72
2023/06/17 05:00:48;;;;;;;6.85;3.17;;;;;;;;;;5014384;28;20389;-72
2023/06/17 05:03:14;;;;;;;4.22;2.80;;;;;;;;;;5013974;28;20034;-72
2023/06/17 05:05:39;;;;;;;5.55;3.03;;;;;;;;;;5014424;28;20037;-72
2023/06/17 05:08:05;;;;;;;4.85;2.92;;;;;;;;;;5013393;28;20061;-72
2023/06/17 05:10:30;;;;;;;11.25;3.20;;;;;;;;;;5013253;28;20080;-72
2023/06/17 05:12:55;;;;;;;5.20;3.08;;;;;;;;;;5012049;28;20375;-73
2023/06/17 05:15:21;;;;;;;4.60;3.38;;;;;;;;;;5012465;28;20585;-72
2023/06/17 05:17:47;;;;;;;4.22;3.03;;;;;;;;;;5011584;28;20533;-72
2023/06/17 05:20:12;;;;;;;5.07;3.08;;;;;;;;;;5014245;28;20474;-73
2023/06/17 05:22:38;;;;;;;4.82;3.40;;;;;;;;;;5013828;28;20040;-72
2023/06/17 05:25:04;;;;;;;5.32;3.30;;;;;;;;;;5014054;28;20120;-72
2023/06/17 05:27:29;;;;;;;4.93;3.50;;;;;;;;;;5014098;28;20390;-72
2023/06/17 05:29:54;;;;;;;6.40;3.45;;;;;;;;;;5013990;28;20452;-72
2023/06/17 05:32:22;;;;;;;4.40;3.22;;;;;;;;;;5013640;28;20037;-72
2023/06/17 05:34:48;;;;;;;6.25;3.25;;;;;;;;;;5012509;28;20493;-72
2023/06/17 05:37:13;;;;;;;6.22;3.40;;;;;;;;;;5013820;28;20026;-72
2023/06/17 05:39:39;;;;;;;4.65;2.78;;;;;;;;;;5020474;28;20042;-72
2023/06/17 05:42:04;;;;;;;4.40;3.30;;;;;;;;;;5013722;28;20121;-72
2023/06/17 05:44:29;;;;;;;7.30;3.83;;;;;;;;;;5013760;28;20030;-72
2023/06/17 05:46:55;;;;;;;5.28;3.45;;;;;;;;;;5013678;28;20389;-72
2023/06/17 05:49:20;;;;;;;6.20;3.30;;;;;;;;;;5012457;28;20038;-72
2023/06/17 05:51:45;;;;;;;5.05;3.28;;;;;;;;;;5012962;28;20133;-72
2023/06/17 05:54:11;;;;;;;8.90;3.97;;;;;;;;;;5012420;28;20036;-72
2023/06/17 05:56:36;;;;;;;6.75;3.78;;;;;;;;;;5003925;28;20124;-72
2023/06/17 05:59:01;;;;;;;5.25;3.67;;;;;;;;;;5011978;28;20319;-72
2023/06/17 06:01:27;;;;;;;6.70;3.78;;;;;;;;;;5013346;28;20038;-72
2023/06/17 06:03:52;;;;;;;6.15;3.47;;;;;;;;;;5013287;28;20085;-72
2023/06/17 06:06:17;;;;;;;5.70;3.60;;;;;;;;;;5013619;28;20120;-72
2023/06/17 06:08:43;;;;;;;5.57;3.80;;;;;;;;;;5013447;28;20168;-72
2023/06/17 06:11:08;;;;;;;5.90;3.97;;;;;;;;;;5013057;28;20074;-72
2023/06/17 06:13:33;;;;;;;7.20;3.92;;;;;;;;;;5013064;28;20037;-72
2023/06/17 06:15:58;;;;;;;7.10;4.63;;;;;;;;;;5012357;28;20034;-72
2023/06/17 06:18:24;;;;;;;8.90;4.05;;;;;;;;;;5010708;28;20034;-72
2023/06/17 06:20:49;;;;;;;8.57;4.18;;;;;;;;;;5012473;28;20034;-72
2023/06/17 06:23:14;;;;;;;4.95;3.60;;;;;;;;;;5011647;28;20033;-72
2023/06/17 06:25:41;;;;;;;7.32;4.40;;;;;;;;;;5012404;28;20048;-72
2023/06/17 06:28:07;;;;;;;9.00;4.40;;;;;;;;;;5012993;28;20474;-73
2023/06/17 06:30:32;;;;;;;9.70;4.50;;;;;;;;;;5010705;28;20088;-72
2023/06/17 06:32:58;;;;;;;6.03;4.35;;;;;;;;;;5013062;28;20396;-72
2023/06/17 06:35:23;;;;;;;7.65;4.25;;;;;;;;;;5013123;28;20038;-72
2023/06/17 06:37:49;;;;;;;15.82;4.88;;;;;;;;;;5013284;28;20037;-72
2023/06/17 06:40:14;;;;;;;7.07;4.47;;;;;;;;;;5012811;28;20110;-72
2023/06/17 06:42:40;;;;;;;7.88;4.45;;;;;;;;;;5013328;28;20077;-72
2023/06/17 06:45:06;;;;;;;6.65;4.50;;;;;;;;;;5012833;28;20061;-72
2023/06/17 06:47:32;;;;;;;7.72;4.40;;;;;;;;;;5011202;28;20033;-72
2023/06/17 06:49:57;;;;;;;7.65;4.13;;;;;;;;;;5011375;28;20118;-72
2023/06/17 06:52:23;;;;;;;6.70;4.13;;;;;;;;;;5012624;28;20109;-71
2023/06/17 06:54:48;;;;;;;9.27;5.03;;;;;;;;;;5012028;28;20157;-72
2023/06/17 06:57:13;;;;;;;6.13;4.25;;;;;;;;;;5004099;28;20084;-72
2023/06/17 06:59:39;;;;;;;13.07;4.70;;;;;;;;;;5010266;28;20173;-72
2023/06/17 07:02:05;;;;;;;6.97;4.32;;;;;;;;;;5015056;28;20037;-72
2023/06/17 07:04:31;;;;;;;6.43;4.38;;;;;;;;;;5014436;28;20053;-72
2023/06/17 07:06:56;;;;;;;7.82;4.32;;;;;;;;;;5003992;28;20101;-73
2023/06/17 07:09:21;;;;;;;9.50;4.38;;;;;;;;;;5010526;28;20222;-72
2023/06/17 07:11:47;;;;;;;6.93;4.22;;;;;;;;;;5009817;28;20034;-73
2023/06/17 07:14:13;;;;;;;9.98;4.20;;;;;;;;;;5012538;28;20091;-72
2023/06/17 07:16:38;;;;;;;5.68;4.20;;;;;;;;;;5012446;28;20111;-72
2023/06/17 07:19:03;;;;;;;5.32;3.92;;;;;;;;;;5012138;28;20172;-72
2023/06/17 07:21:29;;;;;;;7.80;4.28;;;;;;;;;;5010826;28;20061;-72
2023/06/17 07:23:54;;;;;;;8.85;4.45;;;;;;;;;;5011766;28;20037;-72
2023/06/17 07:26:20;;;;;;;5.93;4.22;;;;;;;;;;5012256;28;20037;-72
2023/06/17 07:28:45;;;;;;;7.93;4.80;;;;;;;;;;5011479;28;20037;-73
2023/06/17 07:31:12;;;;;;;7.10;4.45;;;;;;;;;;5011786;28;20441;-72
2023/06/17 07:33:39;;;;;;;5.60;3.25;;;;;;;;;;5012831;28;20084;-73
2023/06/17 07:36:05;;;;;;;8.70;3.90;;;;;;;;;;5012911;28;20046;-72
2023/06/17 07:38:32;;;;;;;7.07;4.07;;;;;;;;;;5011978;28;20112;-72
2023/06/17 07:40:58;;;;;;;8.75;3.90;;;;;;;;;;5014100;28;20461;-72
2023/06/17 07:43:23;;;;;;;7.03;4.05;;;;;;;;;;5013720;28;20133;-72
2023/06/17 07:45:49;;;;;;;5.65;4.13;;;;;;;;;;5012837;28;20041;-73
2023/06/17 07:48:14;;;;;;;6.93;3.92;;;;;;;;;;5015419;28;20026;-72
2023/06/17 07:50:40;;;;;;;5.97;3.78;;;;;;;;;;5013878;28;20038;-73
2023/06/17 07:53:05;;;;;;;7.53;3.45;;;;;;;;;;5015201;28;20128;-73
2023/06/17 07:55:32;;;;;;;5.68;3.70;;;;;;;;;;5015600;28;20120;-72
2023/06/17 07:57:57;;;;;;;8.63;3.58;;;;;;;;;;5014840;28;20100;-73
2023/06/17 08:00:23;;;;;;;6.05;4.00;;;;;;;;;;5015479;28;20107;-73
2023/06/17 08:02:49;;;;;;;5.47;3.83;;;;;;;;;;5014909;28;20045;-72
2023/06/17 08:05:14;;;;;;;7.15;3.55;;;;;;;;;;5015546;28;20084;-72
2023/06/17 08:07:40;;;;;;;5.32;3.28;;;;;;;;;;5015583;28;20037;-72
2023/06/17 08:10:06;;;;;;;6.53;3.47;;;;;;;;;;5015414;28;20048;-72
2023/06/17 08:12:31;;;;;;;9.52;3.80;;;;;;;;;;5014859;28;20030;-72
2023/06/17 08:14:56;;;;;;;7.25;4.05;;;;;;;;;;5015451;28;20047;-72
2023/06/17 08:17:22;;;;;;;8.55;3.55;;;;;;;;;;5014211;28;20441;-72
2023/06/17 08:19:47;;;;;;;7.57;3.58;;;;;;;;;;5012162;28;20474;-72
2023/06/17 08:22:12;;;;;;;4.93;3.53;;;;;;;;;;5015264;28;20050;-72
2023/06/17 08:24:38;;;;;;;6.63;4.28;;;;;;;;;;5015269;28;20044;-72
2023/06/17 08:27:05;;;;;;;10.88;3.80;;;;;;;;;;5015191;28;20033;-72
2023/06/17 08:29:31;;;;;;;7.68;4.20;;;;;;;;;;5015007;28;20042;-72
2023/06/17 08:31:56;;;;;;;6.93;3.65;;;;;;;;;;5013590;28;20121;-73
2023/06/17 08:34:22;;;;;;;8.95;3.60;;;;;;;;;;5013995;28;20091;-73
2023/06/17 08:36:54;;;;;;;5.10;3.78;;;;;;;;;;5013740;28;20050;-73
2023/06/17 08:39:20;;;;;;;5.20;3.92;;;;;;;;;;5013803;28;20382;-72
2023/06/17 08:41:45;;;;;;;8.60;4.45;;;;;;;;;;5013710;28;20038;-72
2023/06/17 08:44:12;;;;;;;10.13;4.82;;;;;;;;;;5014727;28;20044;-73
2023/06/17 08:46:38;;;;;;;6.78;4.22;;;;;;;;;;5014714;28;20045;-72
2023/06/17 08:49:04;;;;;;;9.07;4.25;;;;;;;;;;5014525;28;20168;-72
2023/06/17 08:51:29;;;;;;;8.18;4.95;;;;;;;;;;5012480;28;20453;-73
2023/06/17 08:53:55;;;;;;;8.85;4.40;;;;;;;;;;5014759;28;20041;-72
2023/06/17 08:56:21;;;;;;;6.15;4.05;;;;;;;;;;5014499;28;20029;-72
2023/06/17 08:58:47;;;;;;;7.82;4.22;;;;;;;;;;5014231;28;20053;-72
2023/06/17 09:01:13;;;;;;;7.68;4.25;;;;;;;;;;5013333;28;20041;-73
2023/06/17 09:03:42;;;;;;;6.25;3.40;;;;;;;;;;5014647;28;20030;-73
2023/06/17 09:06:20;;;;;;;6.05;4.05;;;;;;;;;;5012933;28;20496;-73
2023/06/17 09:08:46;;;;;;;8.13;4.03;;;;;;;;;;5014480;28;20045;-72
2023/06/17 09:11:12;;;;;;;9.23;3.92;;;;;;;;;;5014011;28;20045;-70
2023/06/17 09:13:37;;;;;;;6.63;3.97;;;;;;;;;;5012742;28;20516;-70
2023/06/17 09:16:03;;;;;;;5.85;3.65;;;;;;;;;;5014005;28;20137;-70
2023/06/17 09:18:32;;;;;;;9.10;4.38;;;;;;;;;;5014259;28;20084;-70
2023/06/17 09:20:57;;;;;;;9.02;3.88;;;;;;;;;;5002358;28;20025;-70
2023/06/17 09:23:23;;;;;;;6.10;3.80;;;;;;;;;;5011963;28;20474;-70
2023/06/17 09:25:59;;;;;;;10.23;4.22;;;;;;;;;;5012889;28;20038;-70
2023/06/17 09:28:25;;;;;;;5.13;3.72;;;;;;;;;;5012616;28;20045;-70
2023/06/17 09:30:53;;;;;;;5.28;3.67;;;;;;;;;;5013936;28;20049;-70
2023/06/17 09:33:19;;;;;;;8.50;3.95;;;;;;;;;;5012592;28;20037;-71
2023/06/17 09:35:46;;;;;;;8.70;4.25;;;;;;;;;;5012898;28;20045;-70
2023/06/17 09:38:15;;;;;;;6.43;3.70;;;;;;;;;;5012509;28;20128;-70
2023/06/17 09:40:41;;;;;;;5.20;3.67;;;;;;;;;;5013465;28;20474;-71
2023/06/17 09:43:06;;;;;;;5.03;3.58;;;;;;;;;;5013821;28;20065;-70
2023/06/17 09:45:32;;;;;;;9.07;3.83;;;;;;;;;;5013598;28;20080;-70
2023/06/17 09:47:58;;;;;;;6.57;3.88;;;;;;;;;;5013662;28;20687;-70
2023/06/17 09:50:24;;;;;;;5.75;3.60;;;;;;;;;;5013580;28;20042;-70
2023/06/17 09:52:55;;;;;;;8.40;3.70;;;;;;;;;;5012664;28;20057;-70
2023/06/17 09:55:22;;;;;;;6.53;3.60;;;;;;;;;;5013624;28;20163;-70
2023/06/17 09:57:54;;;;;;;8.70;3.65;;;;;;;;;;5013682;28;20305;-70
2023/06/17 10:00:20;;;;;;;;;;;;;;;;;;5013595;28;20056;-70
2023/06/17 10:02:45;;;;;;;6.18;4.03;;;;;;;;;;5013300;28;19913;-70
2023/06/17 10:05:11;;;;;;;5.65;3.40;;;;;;;;;;5013453;28;20029;-70
2023/06/17 10:07:39;;;;;;;4.97;3.50;;;;;;;;;;5012762;28;20034;-70
2023/06/17 10:10:06;;;;;;;7.38;3.05;;;;;;;;;;5011401;28;20092;-70
2023/06/17 10:12:33;;;;;;;5.03;3.47;;;;;;;;;;5011129;28;20112;-70
2023/06/17 10:14:59;;;;;;;6.72;3.15;;;;;;;;;;5013241;28;20034;-70
2023/06/17 10:17:25;;;;;;;5.50;2.75;;;;;;;;;;5011542;28;20087;-70
2023/06/17 10:19:51;;;;;;;5.53;2.60;;;;;;;;;;5012246;28;20390;-70
2023/06/17 10:22:19;;;;;;;3.78;2.60;;;;;;;;;;5012604;28;20405;-70
2023/06/17 10:24:46;;;;;;;9.73;3.40;;;;;;;;;;5011555;28;20053;-70
2023/06/17 10:27:12;;;;;;;6.68;2.97;;;;;;;;;;5012195;28;20061;-71
2023/06/17 10:29:42;;;;;;;3.97;2.67;;;;;;;;;;5010842;28;20401;-70
2023/06/17 10:32:23;;;;;;;7.28;3.30;;;;;;;;;;5013169;28;20061;-73
2023/06/17 10:35:09;;;;;;;7.18;4.00;;;;;;;;;;5014283;28;20033;-71
2023/06/17 10:37:39;;;;;;;7.78;3.55;;;;;;;;;;5016934;28;20112;-70
2023/06/17 10:40:25;;;;;;;5.50;3.88;;;;;;;;;;5012374;28;20044;-73
2023/06/17 10:42:57;;;;;;;6.70;3.13;;;;;;;;;;5015515;28;20072;-70
2023/06/17 10:45:22;;;;;;;5.72;3.55;;;;;;;;;;5015689;28;20403;-73
2023/06/17 10:47:47;;;;;;;6.75;3.65;;;;;;;;;;5014928;28;20036;-73
2023/06/17 10:50:13;;;;;;;5.80;4.10;;;;;;;;;;5016575;28;20034;-72
2023/06/17 10:52:38;;;;;;;6.82;3.85;;;;;;;;;;5015093;28;20046;-72
2023/06/17 10:55:04;;;;;;;5.43;3.47;;;;;;;;;;5015964;28;20088;-70
2023/06/17 10:57:34;;;;;;;5.60;3.90;;;;;;;;;;5016948;28;20124;-70
2023/06/17 11:00:07;;;;;;;5.75;3.60;;;;;;;;;;5003256;28;20371;-73
2023/06/17 11:02:32;;;;;;;5.18;3.72;;;;;;;;;;5016622;28;20030;-72
2023/06/17 11:04:58;;;;;;;6.65;3.80;;;;;;;;;;5015426;28;20485;-73
2023/06/17 11:07:26;;;;;;;6.40;3.97;;;;;;;;;;5012150;28;20046;-72
2023/06/17 11:09:51;;;;;;;5.65;3.60;;;;;;;;;;5013127;28;20053;-73
2023/06/17 11:12:17;;;;;;;5.43;3.95;;;;;;;;;;5013575;28;20451;-73
2023/06/17 11:14:43;;;;;;;6.97;4.28;;;;;;;;;;5015461;28;20041;-70
2023/06/17 11:17:08;;;;;;;5.22;3.35;;;;;;;;;;5016575;28;20462;-70
2023/06/17 11:19:33;;;;;;;35.50;8.05;;;;;;;;;;5015765;28;20038;-70
2023/06/17 11:22:03;;;;;;;16.50;4.97;;;;;;;;;;5016457;28;20072;-70
2023/06/17 11:24:29;;;;;;;8.75;4.00;;;;;;;;;;5016262;28;20026;-70
2023/06/17 11:26:54;;;;;;;8.40;3.60;;;;;;;;;;5014620;28;20156;-70
2023/06/17 11:29:20;;;;;;;7.55;4.28;;;;;;;;;;5014675;28;20042;-70
2023/06/17 11:31:46;;;;;;;7.32;4.00;;;;;;;;;;5015981;28;20075;-70
2023/06/17 11:34:11;;;;;;;5.35;3.78;;;;;;;;;;5014680;28;20123;-72
2023/06/17 11:36:37;;;;;;;6.60;4.03;;;;;;;;;;5014586;28;20042;-70
2023/06/17 11:39:02;;;;;;;9.88;3.90;;;;;;;;;;5014966;28;20390;-70
2023/06/17 11:41:28;;;;;;;6.28;4.05;;;;;;;;;;5010770;28;20045;-73
2023/06/17 11:43:54;;;;;;;5.18;3.58;;;;;;;;;;5015673;28;20038;-73
2023/06/17 11:46:23;;;;;;;7.50;3.63;;;;;;;;;;5014249;28;20040;-72
2023/06/17 11:48:49;;;;;;;10.00;4.18;;;;;;;;;;5015818;28;20429;-73
2023/06/17 11:51:15;;;;;;;6.35;4.03;;;;;;;;;;5013200;28;20038;-72
2023/06/17 11:53:45;;;;;;;7.20;4.20;;;;;;;;;;5015748;28;20144;-70
2023/06/17 11:56:10;;;;;;;7.25;3.47;;;;;;;;;;5014863;28;20095;-73
2023/06/17 11:58:39;;;;;;;7.78;3.60;;;;;;;;;;5012140;28;20050;-70
2023/06/17 12:01:05;;;;;;;5.72;3.13;;;;;;;;;;5014249;28;20033;-73
2023/06/17 12:03:31;;;;;;;6.32;3.10;;;;;;;;;;5013198;28;20406;-73
2023/06/17 12:05:57;;;;;;;4.90;3.50;;;;;;;;;;5014514;28;20045;-73
2023/06/17 12:08:23;;;;;;;4.78;3.25;;;;;;;;;;5013409;28;20462;-73
2023/06/17 12:10:49;;;;;;;6.95;3.63;;;;;;;;;;5015448;28;20052;-72
2023/06/17 12:13:15;;;;;;;4.30;2.80;;;;;;;;;;5009249;28;20046;-73
2023/06/17 12:15:41;;;;;;;6.53;3.53;;;;;;;;;;5015444;28;20030;-72
2023/06/17 12:18:10;;;;;;;5.72;3.17;;;;;;;;;;5015348;28;20041;-72
2023/06/17 12:20:39;;;;;;;5.88;3.15;;;;;;;;;;5015053;28;20106;-72
2023/06/17 12:23:04;;;;;;;5.28;2.42;;;;;;;;;;5013658;28;20041;-72
2023/06/17 12:25:36;;;;;;;7.25;2.95;;;;;;;;;;5015188;28;20037;-72
2023/06/17 12:28:02;;;;;;;5.82;3.28;;;;;;;;;;5014578;28;20066;-72
2023/06/17 12:30:27;;;;;;;4.65;3.08;;;;;;;;;;5014885;28;20088;-72
2023/06/17 12:32:53;;;;;;;6.43;3.45;;;;;;;;;;5014267;28;20050;-72
2023/06/17 12:35:19;;;;;;;5.07;2.92;;;;;;;;;;5013489;28;20490;-72
2023/06/17 12:37:45;;;;;;;5.30;2.70;;;;;;;;;;5004596;28;20032;-72
2023/06/17 12:40:11;;;;;;;7.38;2.65;;;;;;;;;;5014350;28;20040;-72
2023/06/17 12:42:37;;;;;;;3.85;2.45;;;;;;;;;;5010948;28;20038;-72
2023/06/17 12:45:03;;;;;;;5.18;2.60;;;;;;;;;;5014808;28;20066;-72
2023/06/17 12:47:30;;;;;;;6.93;2.63;;;;;;;;;;5013548;28;20056;-72
2023/06/17 12:49:55;;;;;;;5.55;2.70;;;;;;;;;;5012653;28;20030;-72
2023/06/17 12:52:21;;;;;;;5.82;2.47;;;;;;;;;;5013130;28;20038;-72
2023/06/17 12:54:46;;;;;;;5.25;3.20;;;;;;;;;;5013476;28;20042;-72
2023/06/17 12:57:13;;;;;;;3.53;2.45;;;;;;;;;;5012833;28;20041;-72
2023/06/17 12:59:38;;;;;;;5.05;2.80;;;;;;;;;;5014646;28;20034;-72
2023/06/17 13:02:03;;;;;;;4.70;2.70;;;;;;;;;;5014311;28;20037;-72
2023/06/17 13:04:29;;;;;;;3.92;2.50;;;;;;;;;;5012716;28;20508;-72
2023/06/17 13:06:56;;;;;;;6.90;2.75;;;;;;;;;;5012535;28;20026;-72
2023/06/17 13:09:22;;;;;;;5.03;2.67;;;;;;;;;;5008466;28;20383;-72
2023/06/17 13:11:48;;;;;;;4.22;2.80;;;;;;;;;;5013192;28;20034;-72
2023/06/17 13:14:13;;;;;;;6.78;2.70;;;;;;;;;;5014156;28;20037;-72
2023/06/17 13:16:40;;;;;;;4.78;2.70;;;;;;;;;;5013239;28;20040;-72
2023/06/17 13:19:07;;;;;;;4.28;2.78;;;;;;;;;;5012900;28;20042;-72
2023/06/17 13:21:33;;;;;;;4.28;2.90;;;;;;;;;;5014319;28;20088;-72
2023/06/17 13:23:59;;;;;;;4.57;2.70;;;;;;;;;;5014199;28;20033;-72
2023/06/17 13:26:28;;;;;;;7.75;2.58;;;;;;;;;;5013957;28;20061;-72
2023/06/17 13:28:54;;;;;;;5.32;2.42;;;;;;;;;;5013845;28;20076;-72
2023/06/17 13:31:19;;;;;;;7.03;2.85;;;;;;;;;;5013700;28;20066;-72
2023/06/17 13:33:45;;;;;;;4.65;2.83;;;;;;;;;;5013597;28;20458;-72
2023/06/17 13:36:10;;;;;;;9.70;2.65;;;;;;;;;;5013877;28;20033;-72
2023/06/17 13:38:35;;;;;;;4.53;3.00;;;;;;;;;;5013542;28;20042;-72
2023/06/17 13:41:01;;;;;;;7.85;2.85;;;;;;;;;;5013545;28;20079;-72
2023/06/17 13:43:27;;;;;;;6.68;2.85;;;;;;;;;;5013635;28;20034;-72
2023/06/17 13:45:52;;;;;;;7.55;3.00;;;;;;;;;;5013471;28;20128;-72
2023/06/17 13:48:19;;;;;;;4.55;2.90;;;;;;;;;;5010437;28;20041;-72
2023/06/17 13:50:44;;;;;;;7.28;2.70;;;;;;;;;;5013464;28;20053;-72
2023/06/17 13:53:10;;;;;;;6.90;3.00;;;;;;;;;;5005289;28;20042;-72
2023/06/17 13:55:36;;;;;;;7.05;3.22;;;;;;;;;;5012786;28;20103;-72
2023/06/17 13:58:01;;;;;;;7.28;3.28;;;;;;;;;;5012163;28;20088;-72
2023/06/17 14:00:27;;;;;;;5.63;2.83;;;;;;;;;;5013230;28;20063;-72
2023/06/17 14:02:52;;;;;;;5.32;2.85;;;;;;;;;;5013217;28;20045;-72
2023/06/17 14:05:17;;;;;;;6.00;3.08;;;;;;;;;;5013416;28;20034;-72
2023/06/17 14:07:43;;;;;;;5.13;3.10;;;;;;;;;;5013520;28;20042;-72
2023/06/17 14:10:08;;;;;;;7.82;2.90;;;;;;;;;;5005451;28;20044;-72
2023/06/17 14:12:34;;;;;;;4.80;2.75;;;;;;;;;;5013464;28;20457;-72
2023/06/17 14:14:59;;;;;;;4.93;3.35;;;;;;;;;;5012022;28;20069;-72
2023/06/17 14:17:25;;;;;;;7.18;3.38;;;;;;;;;;5011374;28;20037;-72
2023/06/17 14:19:51;;;;;;;9.27;3.25;;;;;;;;;;5012774;28;20385;-72
2023/06/17 14:22:16;;;;;;;8.57;3.15;;;;;;;;;;5011940;28;20474;-72
2023/06/17 14:24:41;;;;;;;5.82;3.47;;;;;;;;;;5012811;28;20052;-72
2023/06/17 14:27:29;;;;;;;5.38;3.35;;;;;;;;;;5012968;28;20113;-72
2023/06/17 14:29:54;;;;;;;4.80;3.20;;;;;;;;;;5007774;28;20102;-72
2023/06/17 14:32:19;;;;;;;6.57;2.95;;;;;;;;;;5011732;28;20030;-72
2023/06/17 14:34:45;;;;;;;4.30;2.97;;;;;;;;;;5006788;28;20040;-72
2023/06/17 14:37:10;;;;;;;5.18;3.25;;;;;;;;;;5012730;28;20066;-72